Terminal Aerodrome Forecast
Issued by NWS Nashville, TN

Home | Current Version | Previous Version | Text Only | Print | Product List | Glossary On
Versions: 1 2 3 4 5 6 7 8 9 10 11 12 13 14 15 16 17 18 19 20 21 22 23 24 25 26 27 28 29 30 31 32 33 34
097
FTUS44 KOHX 210520
TAFCSV
TAF
KCSV 210520Z 2106/2206 VRB03KT P6SM BKN250
     FM211700 16010G15KT P6SM BKN220
     FM212300 15006KT 5SM -SHRA OVC040
     FM220200 15004KT 2SM -SHRA OVC014=

USA.gov is the U.S. government's official web portal to all federal, state and local government web resources and services.